sensor_id;sensor_type;location;lat;lon;timestamp;P1;durP1;ratioP1;P2;durP2;ratioP2
21181;SDS011;10749;46.296;7.524;2023-12-14T00:01:50;7.33;;;6.53;;
21181;SDS011;10749;46.296;7.524;2023-12-14T00:04:15;7.77;;;6.93;;
21181;SDS011;10749;46.296;7.524;2023-12-14T00:06:40;8.00;;;7.07;;
21181;SDS011;10749;46.296;7.524;2023-12-14T00:09:06;8.73;;;7.10;;
21181;SDS011;10749;46.296;7.524;2023-12-14T00:11:35;8.33;;;6.97;;
21181;SDS011;10749;46.296;7.524;2023-12-14T00:14:02;9.77;;;7.10;;
21181;SDS011;10749;46.296;7.524;2023-12-14T00:16:28;8.30;;;7.13;;
21181;SDS011;10749;46.296;7.524;2023-12-14T00:18:53;10.27;;;7.53;;
21181;SDS011;10749;46.296;7.524;2023-12-14T00:21:18;4.97;;;4.47;;
21181;SDS011;10749;46.296;7.524;2023-12-14T00:23:43;2.20;;;2.00;;
21181;SDS011;10749;46.296;7.524;2023-12-14T00:26:09;1.93;;;1.50;;
21181;SDS011;10749;46.296;7.524;2023-12-14T00:28:34;5.43;;;3.97;;
21181;SDS011;10749;46.296;7.524;2023-12-14T00:30:59;6.87;;;4.37;;
21181;SDS011;10749;46.296;7.524;2023-12-14T00:33:25;5.07;;;3.23;;
21181;SDS011;10749;46.296;7.524;2023-12-14T00:35:50;5.17;;;3.77;;
21181;SDS011;10749;46.296;7.524;2023-12-14T00:38:16;5.37;;;3.93;;
21181;SDS011;10749;46.296;7.524;2023-12-14T00:40:41;6.53;;;4.47;;
21181;SDS011;10749;46.296;7.524;2023-12-14T00:43:06;6.10;;;4.53;;
21181;SDS011;10749;46.296;7.524;2023-12-14T00:45:31;6.53;;;4.67;;
21181;SDS011;10749;46.296;7.524;2023-12-14T00:47:57;7.33;;;5.23;;
21181;SDS011;10749;46.296;7.524;2023-12-14T00:50:22;8.97;;;5.83;;
21181;SDS011;10749;46.296;7.524;2023-12-14T00:52:47;7.43;;;6.53;;
21181;SDS011;10749;46.296;7.524;2023-12-14T00:55:12;9.37;;;7.03;;
21181;SDS011;10749;46.296;7.524;2023-12-14T00:57:38;9.33;;;7.13;;
21181;SDS011;10749;46.296;7.524;2023-12-14T01:00:03;9.30;;;7.53;;
21181;SDS011;10749;46.296;7.524;2023-12-14T01:02:29;9.23;;;7.07;;
21181;SDS011;10749;46.296;7.524;2023-12-14T01:04:54;9.07;;;7.03;;
21181;SDS011;10749;46.296;7.524;2023-12-14T01:07:19;11.30;;;8.23;;
21181;SDS011;10749;46.296;7.524;2023-12-14T01:09:45;9.80;;;7.63;;
21181;SDS011;10749;46.296;7.524;2023-12-14T01:12:10;10.83;;;8.00;;
21181;SDS011;10749;46.296;7.524;2023-12-14T01:14:35;9.43;;;7.80;;
21181;SDS011;10749;46.296;7.524;2023-12-14T01:17:00;9.20;;;7.27;;
21181;SDS011;10749;46.296;7.524;2023-12-14T01:19:26;9.37;;;7.73;;
21181;SDS011;10749;46.296;7.524;2023-12-14T01:21:51;8.87;;;7.77;;
21181;SDS011;10749;46.296;7.524;2023-12-14T01:24:17;10.17;;;8.00;;
21181;SDS011;10749;46.296;7.524;2023-12-14T01:26:42;9.60;;;7.40;;
21181;SDS011;10749;46.296;7.524;2023-12-14T01:29:07;9.03;;;7.90;;
21181;SDS011;10749;46.296;7.524;2023-12-14T01:31:32;8.07;;;7.27;;
21181;SDS011;10749;46.296;7.524;2023-12-14T01:33:58;9.93;;;6.53;;
21181;SDS011;10749;46.296;7.524;2023-12-14T01:36:24;7.83;;;6.53;;
21181;SDS011;10749;46.296;7.524;2023-12-14T01:38:51;6.83;;;6.10;;
21181;SDS011;10749;46.296;7.524;2023-12-14T01:41:17;6.63;;;5.77;;
21181;SDS011;10749;46.296;7.524;2023-12-14T01:43:43;6.70;;;5.47;;
21181;SDS011;10749;46.296;7.524;2023-12-14T01:46:08;7.60;;;5.93;;
21181;SDS011;10749;46.296;7.524;2023-12-14T01:48:34;8.93;;;6.47;;
21181;SDS011;10749;46.296;7.524;2023-12-14T01:50:59;4.23;;;3.37;;
21181;SDS011;10749;46.296;7.524;2023-12-14T01:53:24;4.00;;;3.23;;
21181;SDS011;10749;46.296;7.524;2023-12-14T01:55:49;5.80;;;3.10;;
21181;SDS011;10749;46.296;7.524;2023-12-14T01:58:15;4.80;;;3.37;;
21181;SDS011;10749;46.296;7.524;2023-12-14T02:03:46;6.43;;;3.73;;
21181;SDS011;10749;46.296;7.524;2023-12-14T02:06:13;4.10;;;3.10;;
21181;SDS011;10749;46.296;7.524;2023-12-14T02:08:38;3.50;;;2.90;;
21181;SDS011;10749;46.296;7.524;2023-12-14T02:11:04;4.10;;;2.87;;
21181;SDS011;10749;46.296;7.524;2023-12-14T02:13:29;3.97;;;2.13;;
21181;SDS011;10749;46.296;7.524;2023-12-14T02:15:54;3.97;;;2.67;;
21181;SDS011;10749;46.296;7.524;2023-12-14T02:18:20;3.00;;;2.70;;
21181;SDS011;10749;46.296;7.524;2023-12-14T02:20:45;3.70;;;2.60;;
21181;SDS011;10749;46.296;7.524;2023-12-14T02:23:10;4.93;;;2.77;;
21181;SDS011;10749;46.296;7.524;2023-12-14T02:25:35;2.87;;;2.57;;
21181;SDS011;10749;46.296;7.524;2023-12-14T02:28:01;4.27;;;2.93;;
21181;SDS011;10749;46.296;7.524;2023-12-14T02:30:26;3.20;;;2.60;;
21181;SDS011;10749;46.296;7.524;2023-12-14T02:32:51;2.83;;;2.40;;
21181;SDS011;10749;46.296;7.524;2023-12-14T02:35:16;2.80;;;2.20;;
21181;SDS011;10749;46.296;7.524;2023-12-14T02:37:43;4.03;;;2.00;;
21181;SDS011;10749;46.296;7.524;2023-12-14T02:40:09;2.80;;;1.50;;
21181;SDS011;10749;46.296;7.524;2023-12-14T02:42:35;2.27;;;1.60;;
21181;SDS011;10749;46.296;7.524;2023-12-14T02:45:01;2.27;;;1.40;;
21181;SDS011;10749;46.296;7.524;2023-12-14T02:47:27;1.90;;;1.23;;
21181;SDS011;10749;46.296;7.524;2023-12-14T02:49:53;1.77;;;1.40;;
21181;SDS011;10749;46.296;7.524;2023-12-14T02:52:18;2.33;;;1.70;;
21181;SDS011;10749;46.296;7.524;2023-12-14T02:54:43;1.70;;;1.60;;
21181;SDS011;10749;46.296;7.524;2023-12-14T02:57:09;2.80;;;1.80;;
21181;SDS011;10749;46.296;7.524;2023-12-14T02:59:34;2.73;;;1.47;;
21181;SDS011;10749;46.296;7.524;2023-12-14T03:01:59;2.77;;;1.30;;
21181;SDS011;10749;46.296;7.524;2023-12-14T03:04:25;1.87;;;1.40;;
21181;SDS011;10749;46.296;7.524;2023-12-14T03:06:50;2.53;;;2.13;;
21181;SDS011;10749;46.296;7.524;2023-12-14T03:09:16;3.73;;;2.67;;
21181;SDS011;10749;46.296;7.524;2023-12-14T03:11:41;3.93;;;3.17;;
21181;SDS011;10749;46.296;7.524;2023-12-14T03:14:06;3.33;;;2.77;;
21181;SDS011;10749;46.296;7.524;2023-12-14T03:16:31;5.03;;;3.80;;
21181;SDS011;10749;46.296;7.524;2023-12-14T03:18:57;4.53;;;3.50;;
21181;SDS011;10749;46.296;7.524;2023-12-14T03:21:22;4.57;;;3.20;;
21181;SDS011;10749;46.296;7.524;2023-12-14T03:23:48;4.73;;;3.73;;
21181;SDS011;10749;46.296;7.524;2023-12-14T03:26:14;3.97;;;3.23;;
21181;SDS011;10749;46.296;7.524;2023-12-14T03:28:39;3.93;;;3.33;;
21181;SDS011;10749;46.296;7.524;2023-12-14T03:31:05;6.87;;;3.50;;
21181;SDS011;10749;46.296;7.524;2023-12-14T03:33:30;3.70;;;2.77;;
21181;SDS011;10749;46.296;7.524;2023-12-14T03:35:55;6.93;;;5.03;;
21181;SDS011;10749;46.296;7.524;2023-12-14T03:38:21;7.80;;;6.07;;
21181;SDS011;10749;46.296;7.524;2023-12-14T03:40:46;7.37;;;6.13;;
21181;SDS011;10749;46.296;7.524;2023-12-14T03:43:11;8.03;;;6.03;;
21181;SDS011;10749;46.296;7.524;2023-12-14T03:45:36;7.63;;;6.10;;
21181;SDS011;10749;46.296;7.524;2023-12-14T03:48:02;8.10;;;6.33;;
21181;SDS011;10749;46.296;7.524;2023-12-14T03:50:27;8.20;;;6.60;;
21181;SDS011;10749;46.296;7.524;2023-12-14T03:52:54;9.80;;;6.67;;
21181;SDS011;10749;46.296;7.524;2023-12-14T03:55:19;7.47;;;6.57;;
21181;SDS011;10749;46.296;7.524;2023-12-14T03:57:44;9.63;;;6.53;;
21181;SDS011;10749;46.296;7.524;2023-12-14T04:00:12;7.37;;;6.20;;
21181;SDS011;10749;46.296;7.524;2023-12-14T04:02:39;8.93;;;6.90;;
21181;SDS011;10749;46.296;7.524;2023-12-14T04:05:05;5.87;;;5.23;;
21181;SDS011;10749;46.296;7.524;2023-12-14T04:07:32;7.03;;;5.30;;
21181;SDS011;10749;46.296;7.524;2023-12-14T04:09:57;7.03;;;6.33;;
21181;SDS011;10749;46.296;7.524;2023-12-14T04:12:22;8.73;;;6.10;;
21181;SDS011;10749;46.296;7.524;2023-12-14T04:14:48;7.50;;;6.50;;
21181;SDS011;10749;46.296;7.524;2023-12-14T04:17:13;7.03;;;6.33;;
21181;SDS011;10749;46.296;7.524;2023-12-14T04:19:39;9.07;;;6.90;;
21181;SDS011;10749;46.296;7.524;2023-12-14T04:22:04;8.90;;;7.07;;
21181;SDS011;10749;46.296;7.524;2023-12-14T04:24:30;8.47;;;7.43;;
21181;SDS011;10749;46.296;7.524;2023-12-14T04:26:55;9.00;;;7.60;;
21181;SDS011;10749;46.296;7.524;2023-12-14T04:29:21;8.87;;;7.70;;
21181;SDS011;10749;46.296;7.524;2023-12-14T04:31:46;8.90;;;7.77;;
21181;SDS011;10749;46.296;7.524;2023-12-14T04:34:11;10.17;;;8.43;;
21181;SDS011;10749;46.296;7.524;2023-12-14T04:36:40;10.20;;;8.77;;
21181;SDS011;10749;46.296;7.524;2023-12-14T04:39:06;10.03;;;8.27;;
21181;SDS011;10749;46.296;7.524;2023-12-14T04:41:31;11.20;;;8.80;;
21181;SDS011;10749;46.296;7.524;2023-12-14T04:43:57;11.07;;;8.97;;
21181;SDS011;10749;46.296;7.524;2023-12-14T04:46:22;11.47;;;8.93;;
21181;SDS011;10749;46.296;7.524;2023-12-14T04:48:47;10.50;;;8.93;;
21181;SDS011;10749;46.296;7.524;2023-12-14T04:51:12;9.47;;;7.33;;
21181;SDS011;10749;46.296;7.524;2023-12-14T04:53:38;10.13;;;7.93;;
21181;SDS011;10749;46.296;7.524;2023-12-14T04:56:03;11.17;;;8.90;;
21181;SDS011;10749;46.296;7.524;2023-12-14T04:58:29;11.17;;;8.97;;
21181;SDS011;10749;46.296;7.524;2023-12-14T05:00:54;10.80;;;8.27;;
21181;SDS011;10749;46.296;7.524;2023-12-14T05:03:19;10.00;;;8.03;;
21181;SDS011;10749;46.296;7.524;2023-12-14T05:05:45;8.47;;;7.03;;
21181;SDS011;10749;46.296;7.524;2023-12-14T05:08:10;8.57;;;7.03;;
21181;SDS011;10749;46.296;7.524;2023-12-14T05:10:35;8.93;;;7.47;;
21181;SDS011;10749;46.296;7.524;2023-12-14T05:13:00;7.23;;;5.90;;
21181;SDS011;10749;46.296;7.524;2023-12-14T05:15:26;5.60;;;4.33;;
21181;SDS011;10749;46.296;7.524;2023-12-14T05:17:51;7.07;;;5.77;;
21181;SDS011;10749;46.296;7.524;2023-12-14T05:20:16;7.70;;;6.17;;
21181;SDS011;10749;46.296;7.524;2023-12-14T05:22:41;7.03;;;5.60;;
21181;SDS011;10749;46.296;7.524;2023-12-14T05:25:07;6.00;;;5.37;;
21181;SDS011;10749;46.296;7.524;2023-12-14T05:27:33;6.07;;;5.00;;
21181;SDS011;10749;46.296;7.524;2023-12-14T05:29:58;5.93;;;4.80;;
21181;SDS011;10749;46.296;7.524;2023-12-14T05:32:24;5.30;;;4.03;;
21181;SDS011;10749;46.296;7.524;2023-12-14T05:34:49;3.57;;;3.20;;
21181;SDS011;10749;46.296;7.524;2023-12-14T05:37:14;4.30;;;3.07;;
21181;SDS011;10749;46.296;7.524;2023-12-14T05:39:42;4.27;;;2.47;;
21181;SDS011;10749;46.296;7.524;2023-12-14T05:42:08;4.50;;;2.90;;
21181;SDS011;10749;46.296;7.524;2023-12-14T05:44:33;3.30;;;2.40;;
21181;SDS011;10749;46.296;7.524;2023-12-14T05:46:59;4.27;;;2.67;;
21181;SDS011;10749;46.296;7.524;2023-12-14T05:49:24;4.40;;;3.10;;
21181;SDS011;10749;46.296;7.524;2023-12-14T05:51:49;6.37;;;3.43;;
21181;SDS011;10749;46.296;7.524;2023-12-14T05:54:14;4.03;;;2.90;;
21181;SDS011;10749;46.296;7.524;2023-12-14T05:56:40;4.13;;;3.60;;
21181;SDS011;10749;46.296;7.524;2023-12-14T05:59:06;3.47;;;2.90;;
21181;SDS011;10749;46.296;7.524;2023-12-14T06:01:31;4.50;;;2.90;;
21181;SDS011;10749;46.296;7.524;2023-12-14T06:03:56;3.70;;;3.10;;
21181;SDS011;10749;46.296;7.524;2023-12-14T06:06:21;3.27;;;2.80;;
21181;SDS011;10749;46.296;7.524;2023-12-14T06:08:47;3.50;;;2.93;;
21181;SDS011;10749;46.296;7.524;2023-12-14T06:11:13;4.17;;;3.77;;
21181;SDS011;10749;46.296;7.524;2023-12-14T06:13:38;4.23;;;3.67;;
21181;SDS011;10749;46.296;7.524;2023-12-14T06:16:04;4.80;;;3.60;;
21181;SDS011;10749;46.296;7.524;2023-12-14T06:18:31;4.77;;;3.80;;
21181;SDS011;10749;46.296;7.524;2023-12-14T06:20:57;4.67;;;3.87;;
21181;SDS011;10749;46.296;7.524;2023-12-14T06:23:22;5.33;;;4.40;;
21181;SDS011;10749;46.296;7.524;2023-12-14T06:25:47;4.73;;;4.20;;
21181;SDS011;10749;46.296;7.524;2023-12-14T06:28:13;5.63;;;4.67;;
21181;SDS011;10749;46.296;7.524;2023-12-14T06:30:38;5.77;;;4.20;;
21181;SDS011;10749;46.296;7.524;2023-12-14T06:33:03;7.03;;;4.97;;
21181;SDS011;10749;46.296;7.524;2023-12-14T06:35:28;6.57;;;4.27;;
21181;SDS011;10749;46.296;7.524;2023-12-14T06:37:54;5.13;;;4.20;;
21181;SDS011;10749;46.296;7.524;2023-12-14T06:40:19;5.37;;;4.37;;
21181;SDS011;10749;46.296;7.524;2023-12-14T06:42:44;4.93;;;4.00;;
21181;SDS011;10749;46.296;7.524;2023-12-14T06:45:09;5.63;;;4.40;;
21181;SDS011;10749;46.296;7.524;2023-12-14T06:47:35;6.73;;;4.93;;
21181;SDS011;10749;46.296;7.524;2023-12-14T06:50:00;6.47;;;4.93;;
21181;SDS011;10749;46.296;7.524;2023-12-14T06:52:25;6.27;;;4.90;;
21181;SDS011;10749;46.296;7.524;2023-12-14T06:54:51;8.23;;;5.47;;
21181;SDS011;10749;46.296;7.524;2023-12-14T06:57:16;6.63;;;4.97;;
21181;SDS011;10749;46.296;7.524;2023-12-14T06:59:41;7.60;;;5.50;;
21181;SDS011;10749;46.296;7.524;2023-12-14T07:02:07;6.63;;;5.43;;
21181;SDS011;10749;46.296;7.524;2023-12-14T07:04:32;7.53;;;5.60;;
21181;SDS011;10749;46.296;7.524;2023-12-14T07:06:57;6.30;;;4.50;;
21181;SDS011;10749;46.296;7.524;2023-12-14T07:09:23;6.03;;;4.43;;
21181;SDS011;10749;46.296;7.524;2023-12-14T07:11:49;4.23;;;3.83;;
21181;SDS011;10749;46.296;7.524;2023-12-14T07:14:14;6.40;;;4.00;;
21181;SDS011;10749;46.296;7.524;2023-12-14T07:16:40;5.00;;;4.10;;
21181;SDS011;10749;46.296;7.524;2023-12-14T07:19:05;4.10;;;3.53;;
21181;SDS011;10749;46.296;7.524;2023-12-14T07:21:31;5.10;;;3.93;;
21181;SDS011;10749;46.296;7.524;2023-12-14T07:23:56;4.97;;;3.90;;
21181;SDS011;10749;46.296;7.524;2023-12-14T07:26:21;5.00;;;3.57;;
21181;SDS011;10749;46.296;7.524;2023-12-14T07:28:46;5.20;;;3.90;;
21181;SDS011;10749;46.296;7.524;2023-12-14T07:31:12;6.37;;;4.47;;
21181;SDS011;10749;46.296;7.524;2023-12-14T07:33:37;6.23;;;4.47;;
21181;SDS011;10749;46.296;7.524;2023-12-14T07:36:03;8.33;;;4.70;;
21181;SDS011;10749;46.296;7.524;2023-12-14T07:38:30;5.57;;;4.27;;
21181;SDS011;10749;46.296;7.524;2023-12-14T07:40:55;4.53;;;2.93;;
21181;SDS011;10749;46.296;7.524;2023-12-14T07:43:21;5.40;;;2.47;;
21181;SDS011;10749;46.296;7.524;2023-12-14T07:45:46;3.40;;;2.20;;
21181;SDS011;10749;46.296;7.524;2023-12-14T07:48:12;2.80;;;2.10;;
21181;SDS011;10749;46.296;7.524;2023-12-14T07:50:37;2.90;;;1.90;;
21181;SDS011;10749;46.296;7.524;2023-12-14T07:53:03;3.37;;;2.20;;
21181;SDS011;10749;46.296;7.524;2023-12-14T07:55:30;3.03;;;2.27;;
21181;SDS011;10749;46.296;7.524;2023-12-14T07:57:55;6.63;;;2.30;;
21181;SDS011;10749;46.296;7.524;2023-12-14T08:00:20;5.83;;;2.80;;
21181;SDS011;10749;46.296;7.524;2023-12-14T08:02:46;5.77;;;3.17;;
21181;SDS011;10749;46.296;7.524;2023-12-14T08:05:11;7.97;;;2.93;;
21181;SDS011;10749;46.296;7.524;2023-12-14T08:07:36;4.83;;;3.33;;
21181;SDS011;10749;46.296;7.524;2023-12-14T08:10:01;3.40;;;3.07;;
21181;SDS011;10749;46.296;7.524;2023-12-14T08:12:27;2.73;;;2.43;;
21181;SDS011;10749;46.296;7.524;2023-12-14T08:14:52;4.27;;;2.33;;
21181;SDS011;10749;46.296;7.524;2023-12-14T08:17:17;4.20;;;2.70;;
21181;SDS011;10749;46.296;7.524;2023-12-14T08:19:43;3.63;;;2.37;;
21181;SDS011;10749;46.296;7.524;2023-12-14T08:22:09;4.73;;;3.00;;
21181;SDS011;10749;46.296;7.524;2023-12-14T08:24:40;3.47;;;2.70;;
21181;SDS011;10749;46.296;7.524;2023-12-14T08:27:05;3.77;;;2.50;;
21181;SDS011;10749;46.296;7.524;2023-12-14T08:29:31;4.03;;;2.20;;
21181;SDS011;10749;46.296;7.524;2023-12-14T08:31:56;2.50;;;2.27;;
21181;SDS011;10749;46.296;7.524;2023-12-14T08:34:24;3.13;;;1.90;;
21181;SDS011;10749;46.296;7.524;2023-12-14T08:36:49;4.10;;;1.97;;
21181;SDS011;10749;46.296;7.524;2023-12-14T08:39:15;2.53;;;1.70;;
21181;SDS011;10749;46.296;7.524;2023-12-14T08:41:40;2.57;;;2.00;;
21181;SDS011;10749;46.296;7.524;2023-12-14T08:44:06;2.90;;;2.17;;
21181;SDS011;10749;46.296;7.524;2023-12-14T08:46:38;2.77;;;2.00;;
21181;SDS011;10749;46.296;7.524;2023-12-14T08:49:04;3.60;;;2.00;;
21181;SDS011;10749;46.296;7.524;2023-12-14T08:51:29;3.53;;;1.90;;
21181;SDS011;10749;46.296;7.524;2023-12-14T08:53:55;2.60;;;2.00;;
21181;SDS011;10749;46.296;7.524;2023-12-14T08:56:20;3.30;;;1.90;;
21181;SDS011;10749;46.296;7.524;2023-12-14T08:58:45;2.37;;;1.80;;
21181;SDS011;10749;46.296;7.524;2023-12-14T09:01:11;2.37;;;2.00;;
21181;SDS011;10749;46.296;7.524;2023-12-14T09:03:36;3.20;;;2.03;;
21181;SDS011;10749;46.296;7.524;2023-12-14T09:06:01;2.47;;;2.07;;
21181;SDS011;10749;46.296;7.524;2023-12-14T09:08:30;2.77;;;2.10;;
21181;SDS011;10749;46.296;7.524;2023-12-14T09:10:55;2.87;;;2.10;;
21181;SDS011;10749;46.296;7.524;2023-12-14T09:13:21;2.40;;;1.70;;
21181;SDS011;10749;46.296;7.524;2023-12-14T09:15:46;3.63;;;2.53;;
21181;SDS011;10749;46.296;7.524;2023-12-14T09:18:12;2.40;;;2.10;;
21181;SDS011;10749;46.296;7.524;2023-12-14T09:20:37;3.13;;;2.20;;
21181;SDS011;10749;46.296;7.524;2023-12-14T09:23:05;3.20;;;1.97;;
21181;SDS011;10749;46.296;7.524;2023-12-14T09:25:30;4.17;;;1.90;;
21181;SDS011;10749;46.296;7.524;2023-12-14T09:27:55;5.00;;;2.27;;
21181;SDS011;10749;46.296;7.524;2023-12-14T09:30:21;2.87;;;1.80;;
21181;SDS011;10749;46.296;7.524;2023-12-14T09:32:47;4.63;;;2.40;;
21181;SDS011;10749;46.296;7.524;2023-12-14T09:35:12;3.47;;;2.73;;
21181;SDS011;10749;46.296;7.524;2023-12-14T09:37:37;5.47;;;2.97;;
21181;SDS011;10749;46.296;7.524;2023-12-14T09:40:03;8.70;;;5.40;;
21181;SDS011;10749;46.296;7.524;2023-12-14T09:42:28;6.23;;;3.10;;
21181;SDS011;10749;46.296;7.524;2023-12-14T09:45:02;4.17;;;3.10;;
21181;SDS011;10749;46.296;7.524;2023-12-14T09:47:28;3.73;;;2.70;;
21181;SDS011;10749;46.296;7.524;2023-12-14T09:49:53;2.97;;;2.50;;
21181;SDS011;10749;46.296;7.524;2023-12-14T09:52:18;2.60;;;2.17;;
21181;SDS011;10749;46.296;7.524;2023-12-14T09:54:44;2.27;;;1.67;;
21181;SDS011;10749;46.296;7.524;2023-12-14T09:57:09;2.57;;;2.37;;
21181;SDS011;10749;46.296;7.524;2023-12-14T09:59:34;3.93;;;3.03;;
21181;SDS011;10749;46.296;7.524;2023-12-14T10:02:09;4.57;;;2.80;;
21181;SDS011;10749;46.296;7.524;2023-12-14T10:04:36;3.23;;;2.30;;
21181;SDS011;10749;46.296;7.524;2023-12-14T10:07:02;2.63;;;2.07;;
21181;SDS011;10749;46.296;7.524;2023-12-14T10:09:31;2.40;;;1.53;;
21181;SDS011;10749;46.296;7.524;2023-12-14T10:12:04;2.23;;;1.83;;
21181;SDS011;10749;46.296;7.524;2023-12-14T10:14:30;1.93;;;1.43;;
21181;SDS011;10749;46.296;7.524;2023-12-14T10:16:56;1.93;;;1.20;;
21181;SDS011;10749;46.296;7.524;2023-12-14T10:19:21;2.47;;;1.50;;
21181;SDS011;10749;46.296;7.524;2023-12-14T10:21:47;1.73;;;1.23;;
21181;SDS011;10749;46.296;7.524;2023-12-14T10:24:14;2.40;;;1.43;;
21181;SDS011;10749;46.296;7.524;2023-12-14T10:26:40;1.60;;;1.10;;
21181;SDS011;10749;46.296;7.524;2023-12-14T10:29:06;1.80;;;1.07;;
21181;SDS011;10749;46.296;7.524;2023-12-14T10:31:31;1.53;;;0.83;;
21181;SDS011;10749;46.296;7.524;2023-12-14T10:33:56;1.67;;;0.90;;
21181;SDS011;10749;46.296;7.524;2023-12-14T10:36:24;1.00;;;0.80;;
21181;SDS011;10749;46.296;7.524;2023-12-14T10:38:52;2.73;;;0.80;;
21181;SDS011;10749;46.296;7.524;2023-12-14T10:41:18;0.80;;;0.60;;
21181;SDS011;10749;46.296;7.524;2023-12-14T10:43:43;1.43;;;0.83;;
21181;SDS011;10749;46.296;7.524;2023-12-14T10:46:12;2.33;;;0.80;;
21181;SDS011;10749;46.296;7.524;2023-12-14T10:48:39;0.97;;;0.53;;
21181;SDS011;10749;46.296;7.524;2023-12-14T10:51:07;1.67;;;0.57;;
21181;SDS011;10749;46.296;7.524;2023-12-14T10:53:33;1.63;;;0.50;;
21181;SDS011;10749;46.296;7.524;2023-12-14T10:56:00;0.73;;;0.60;;
21181;SDS011;10749;46.296;7.524;2023-12-14T10:58:44;1.03;;;0.70;;
21181;SDS011;10749;46.296;7.524;2023-12-14T11:01:14;0.80;;;0.60;;
21181;SDS011;10749;46.296;7.524;2023-12-14T11:03:41;0.70;;;0.70;;
21181;SDS011;10749;46.296;7.524;2023-12-14T11:08:57;0.70;;;0.60;;
21181;SDS011;10749;46.296;7.524;2023-12-14T11:11:38;1.70;;;0.80;;
21181;SDS011;10749;46.296;7.524;2023-12-14T11:14:07;1.80;;;0.93;;
21181;SDS011;10749;46.296;7.524;2023-12-14T11:16:35;2.33;;;0.93;;
21181;SDS011;10749;46.296;7.524;2023-12-14T11:21:46;1.27;;;0.80;;
21181;SDS011;10749;46.296;7.524;2023-12-14T11:24:12;1.40;;;0.80;;
21181;SDS011;10749;46.296;7.524;2023-12-14T11:26:37;1.43;;;0.80;;
21181;SDS011;10749;46.296;7.524;2023-12-14T11:29:02;3.03;;;1.60;;
21181;SDS011;10749;46.296;7.524;2023-12-14T11:31:29;3.27;;;1.10;;
21181;SDS011;10749;46.296;7.524;2023-12-14T11:33:54;1.73;;;0.80;;
21181;SDS011;10749;46.296;7.524;2023-12-14T11:36:21;1.03;;;0.77;;
21181;SDS011;10749;46.296;7.524;2023-12-14T11:38:47;2.47;;;0.70;;
21181;SDS011;10749;46.296;7.524;2023-12-14T11:41:13;0.93;;;0.50;;
21181;SDS011;10749;46.296;7.524;2023-12-14T11:43:42;1.30;;;0.67;;
21181;SDS011;10749;46.296;7.524;2023-12-14T11:46:09;6.27;;;2.50;;
21181;SDS011;10749;46.296;7.524;2023-12-14T11:48:35;20.27;;;8.10;;
21181;SDS011;10749;46.296;7.524;2023-12-14T11:51:00;5.07;;;2.07;;
21181;SDS011;10749;46.296;7.524;2023-12-14T11:53:26;3.00;;;1.43;;
21181;SDS011;10749;46.296;7.524;2023-12-14T11:55:51;2.23;;;1.10;;
21181;SDS011;10749;46.296;7.524;2023-12-14T11:58:17;2.50;;;1.07;;
21181;SDS011;10749;46.296;7.524;2023-12-14T12:00:43;1.50;;;1.13;;
21181;SDS011;10749;46.296;7.524;2023-12-14T12:03:16;1.93;;;0.80;;
21181;SDS011;10749;46.296;7.524;2023-12-14T12:05:45;1.10;;;0.70;;
21181;SDS011;10749;46.296;7.524;2023-12-14T12:08:12;0.93;;;0.63;;
21181;SDS011;10749;46.296;7.524;2023-12-14T12:10:39;0.90;;;0.60;;
21181;SDS011;10749;46.296;7.524;2023-12-14T12:13:16;0.70;;;0.70;;
21181;SDS011;10749;46.296;7.524;2023-12-14T12:15:42;1.13;;;0.60;;
21181;SDS011;10749;46.296;7.524;2023-12-14T12:18:08;0.83;;;0.50;;
21181;SDS011;10749;46.296;7.524;2023-12-14T12:20:35;1.87;;;0.60;;
21181;SDS011;10749;46.296;7.524;2023-12-14T12:23:01;1.20;;;0.80;;
21181;SDS011;10749;46.296;7.524;2023-12-14T12:25:27;1.80;;;0.80;;
21181;SDS011;10749;46.296;7.524;2023-12-14T12:27:59;2.00;;;0.90;;
21181;SDS011;10749;46.296;7.524;2023-12-14T12:30:25;1.07;;;0.70;;
21181;SDS011;10749;46.296;7.524;2023-12-14T12:32:51;1.77;;;0.60;;
21181;SDS011;10749;46.296;7.524;2023-12-14T12:35:17;1.30;;;0.80;;
21181;SDS011;10749;46.296;7.524;2023-12-14T12:37:43;1.40;;;0.90;;
21181;SDS011;10749;46.296;7.524;2023-12-14T12:40:09;1.90;;;1.27;;
21181;SDS011;10749;46.296;7.524;2023-12-14T12:42:35;1.80;;;0.87;;
21181;SDS011;10749;46.296;7.524;2023-12-14T12:45:00;2.40;;;1.10;;
21181;SDS011;10749;46.296;7.524;2023-12-14T12:47:26;1.63;;;1.00;;
21181;SDS011;10749;46.296;7.524;2023-12-14T12:49:51;1.00;;;0.70;;
21181;SDS011;10749;46.296;7.524;2023-12-14T12:52:16;2.13;;;0.70;;
21181;SDS011;10749;46.296;7.524;2023-12-14T12:54:42;1.17;;;0.63;;
21181;SDS011;10749;46.296;7.524;2023-12-14T12:57:07;2.87;;;0.97;;
21181;SDS011;10749;46.296;7.524;2023-12-14T12:59:32;3.20;;;0.50;;
21181;SDS011;10749;46.296;7.524;2023-12-14T13:01:58;1.27;;;0.60;;
21181;SDS011;10749;46.296;7.524;2023-12-14T13:04:23;1.67;;;0.60;;
21181;SDS011;10749;46.296;7.524;2023-12-14T13:06:51;1.33;;;0.70;;
21181;SDS011;10749;46.296;7.524;2023-12-14T13:09:16;7.10;;;0.93;;
21181;SDS011;10749;46.296;7.524;2023-12-14T13:11:43;1.83;;;0.50;;
21181;SDS011;10749;46.296;7.524;2023-12-14T13:14:09;0.93;;;0.40;;
21181;SDS011;10749;46.296;7.524;2023-12-14T13:16:35;1.60;;;0.60;;
21181;SDS011;10749;46.296;7.524;2023-12-14T13:19:00;5.53;;;0.80;;
21181;SDS011;10749;46.296;7.524;2023-12-14T13:21:28;1.20;;;0.60;;
21181;SDS011;10749;46.296;7.524;2023-12-14T13:23:53;0.80;;;0.60;;
21181;SDS011;10749;46.296;7.524;2023-12-14T13:26:18;1.20;;;0.50;;
21181;SDS011;10749;46.296;7.524;2023-12-14T13:28:44;1.17;;;0.70;;
21181;SDS011;10749;46.296;7.524;2023-12-14T13:31:09;1.47;;;1.00;;
21181;SDS011;10749;46.296;7.524;2023-12-14T13:33:35;1.97;;;0.70;;
21181;SDS011;10749;46.296;7.524;2023-12-14T13:36:00;0.80;;;0.60;;
21181;SDS011;10749;46.296;7.524;2023-12-14T13:38:25;2.47;;;0.70;;
21181;SDS011;10749;46.296;7.524;2023-12-14T13:40:51;4.23;;;0.60;;
21181;SDS011;10749;46.296;7.524;2023-12-14T13:43:16;1.23;;;0.50;;
21181;SDS011;10749;46.296;7.524;2023-12-14T13:45:41;7.33;;;2.90;;
21181;SDS011;10749;46.296;7.524;2023-12-14T13:48:07;3.07;;;1.00;;
21181;SDS011;10749;46.296;7.524;2023-12-14T13:50:33;1.17;;;0.43;;
21181;SDS011;10749;46.296;7.524;2023-12-14T13:52:59;1.90;;;0.97;;
21181;SDS011;10749;46.296;7.524;2023-12-14T13:55:25;2.10;;;0.57;;
21181;SDS011;10749;46.296;7.524;2023-12-14T13:57:50;2.37;;;0.90;;
21181;SDS011;10749;46.296;7.524;2023-12-14T14:00:16;1.47;;;0.50;;
21181;SDS011;10749;46.296;7.524;2023-12-14T14:02:43;5.17;;;0.73;;
21181;SDS011;10749;46.296;7.524;2023-12-14T14:05:09;3.70;;;0.83;;
21181;SDS011;10749;46.296;7.524;2023-12-14T14:07:34;0.93;;;0.60;;
21181;SDS011;10749;46.296;7.524;2023-12-14T14:09:59;3.53;;;0.70;;
21181;SDS011;10749;46.296;7.524;2023-12-14T14:12:25;1.93;;;0.50;;
21181;SDS011;10749;46.296;7.524;2023-12-14T14:14:50;1.47;;;0.50;;
21181;SDS011;10749;46.296;7.524;2023-12-14T14:17:15;0.90;;;0.50;;
21181;SDS011;10749;46.296;7.524;2023-12-14T14:19:40;4.57;;;0.50;;
21181;SDS011;10749;46.296;7.524;2023-12-14T14:22:06;1.13;;;0.33;;
21181;SDS011;10749;46.296;7.524;2023-12-14T14:24:31;1.60;;;0.43;;
21181;SDS011;10749;46.296;7.524;2023-12-14T14:26:56;3.07;;;0.47;;
21181;SDS011;10749;46.296;7.524;2023-12-14T14:29:23;0.80;;;0.53;;
21181;SDS011;10749;46.296;7.524;2023-12-14T14:31:48;1.67;;;0.40;;
21181;SDS011;10749;46.296;7.524;2023-12-14T14:34:14;3.97;;;0.70;;
21181;SDS011;10749;46.296;7.524;2023-12-14T14:36:40;0.73;;;0.40;;
21181;SDS011;10749;46.296;7.524;2023-12-14T14:39:05;1.63;;;0.43;;
21181;SDS011;10749;46.296;7.524;2023-12-14T14:41:31;0.60;;;0.30;;
21181;SDS011;10749;46.296;7.524;2023-12-14T14:43:56;3.00;;;0.50;;
21181;SDS011;10749;46.296;7.524;2023-12-14T14:46:22;1.13;;;0.50;;
21181;SDS011;10749;46.296;7.524;2023-12-14T14:48:48;1.37;;;0.50;;